Bethlehem, Connecticut
Current Conditions -  °F | °C
As of 8:50 AM on Monday 24 Nov 2014 (Local Time) from KOXC Reporting Station
Light Rain Light Rain  
Wind Chill: 61°   Ceiling: 500
Heat Index: 61°   Visibility: 3mi
Dew Point: 55°   Wind: 15mph
Humidity: 82%   Direction: 200°SSW
Pressure: 29.73"   Gusts: 23mph
Location:  41.64°N, 73.21°W
Report Text: KOXC 241350Z 20013G20KT 3SM -RA BR OVC005 16/13 A2973
Loading
Personal Weather Stations






























Interactive Weather Map New forecast layout! Learn more

10-Day Weather Forecast

Advertisements
Track Severe Weather on mobile